Henlow, United Kingdom
Current Conditions -  °F | °C
As of 4:20 PM on Thursday 18 Dec 2014 (Local Time) from EGGW Reporting Station
Overcast Overcast  
Wind Chill: 54°   Ceiling: 1200
Heat Index: 54°   Visibility: 6mi
Dew Point: 52°   Wind: 24mph
Humidity: 94%   Direction: 240°WSW
Pressure: 29.77"   Gusts: 38mph
Location:  52.03°N, 0.29°W
Report Text: EGGW 181620Z 24021G33KT 9999 OVC012 12/11 Q1008
Loading
Personal Weather Stations






























Interactive Weather Map New forecast layout! Learn more

10-Day Weather Forecast

Advertisements
Track Severe Weather on mobile